SVA1014 OEJN-OERK
Flight info
| Callsign | SVA1014 |
|---|---|
| Flight time | N/A |
| Altitude | 35000 |
| Route | EGREP T532 ORDEM |
| Aircraft | B77W/H-SDE1E2E3FGHIJ2J3J4J5M1RWXY/LB1D1 |
Departure
| Time | 2026-04-29 21:48 |
|---|---|
| Airport | King Abdulaziz International Airport (OEJN) |
Arrival
| Time | N/A |
|---|---|
| Airport | King Khalid International Airport (OERK) |
| Time | Latitude | Longitude | Altitude | Speed | Heading |
|---|---|---|---|---|---|
| 2026-04-29 20:44 | 21.66609 | 39.17294 | 40 ft | 0 kts | 253° |
| 2026-04-29 21:33 | 21.66610 | 39.17298 | 39 ft | 3 kts | 252° |
| 2026-04-29 21:34 | 21.66621 | 39.17325 | 38 ft | 4 kts | 238° |
| 2026-04-29 21:34 | 21.66637 | 39.17347 | 36 ft | 4 kts | 216° |
| 2026-04-29 21:34 | 21.66660 | 39.17357 | 38 ft | 4 kts | 170° |
| 2026-04-29 21:34 | 21.66666 | 39.17356 | 36 ft | 0 kts | 160° |
| 2026-04-29 21:39 | 21.66665 | 39.17356 | 40 ft | 0 kts | 160° |
| 2026-04-29 21:39 | 21.66660 | 39.17358 | 40 ft | 0 kts | 160° |
| 2026-04-29 21:42 | 21.66654 | 39.17360 | 40 ft | 1 kts | 160° |
| 2026-04-29 21:42 | 21.66640 | 39.17366 | 40 ft | 3 kts | 160° |
| 2026-04-29 21:43 | 21.66610 | 39.17378 | 40 ft | 6 kts | 160° |
| 2026-04-29 21:43 | 21.66556 | 39.17400 | 40 ft | 8 kts | 153° |
| 2026-04-29 21:43 | 21.66507 | 39.17451 | 41 ft | 7 kts | 128° |
| 2026-04-29 21:43 | 21.66493 | 39.17514 | 41 ft | 7 kts | 83° |
| 2026-04-29 21:44 | 21.66510 | 39.17576 | 41 ft | 11 kts | 72° |
| 2026-04-29 21:44 | 21.66535 | 39.17658 | 41 ft | 7 kts | 72° |
| 2026-04-29 21:44 | 21.66554 | 39.17719 | 41 ft | 11 kts | 69° |
| 2026-04-29 21:44 | 21.66585 | 39.17803 | 41 ft | 13 kts | 69° |
| 2026-04-29 21:45 | 21.66609 | 39.17868 | 41 ft | 9 kts | 69° |
| 2026-04-29 21:45 | 21.66618 | 39.17894 | 41 ft | 2 kts | 69° |
| 2026-04-29 21:45 | 21.66628 | 39.17924 | 41 ft | 6 kts | 70° |
| 2026-04-29 21:45 | 21.66647 | 39.17975 | 42 ft | 5 kts | 65° |
| 2026-04-29 21:46 | 21.66678 | 39.18011 | 42 ft | 8 kts | 26° |
| 2026-04-29 21:46 | 21.66705 | 39.18017 | 42 ft | 2 kts | 2° |
| 2026-04-29 21:46 | 21.66734 | 39.18011 | 41 ft | 6 kts | 342° |
| 2026-04-29 21:46 | 21.66787 | 39.17992 | 41 ft | 11 kts | 341° |
| 2026-04-29 21:47 | 21.66907 | 39.17945 | 42 ft | 30 kts | 340° |
| 2026-04-29 21:47 | 21.67214 | 39.17824 | 39 ft | 63 kts | 340° |
| 2026-04-29 21:47 | 21.67706 | 39.17631 | 38 ft | 86 kts | 340° |
| 2026-04-29 21:47 | 21.68492 | 39.17323 | 31 ft | 177 kts | 340° |
| 2026-04-29 21:48 | 21.69964 | 39.16775 | 405 ft | 253 kts | 341° |
| 2026-04-29 21:48 | 21.71671 | 39.16162 | 2065 ft | 257 kts | 341° |
| 2026-04-29 21:48 | 21.73309 | 39.15518 | 4362 ft | 243 kts | 337° |
| 2026-04-29 21:48 | 21.75015 | 39.14961 | 5252 ft | 293 kts | 351° |
| 2026-04-29 21:49 | 21.77255 | 39.15330 | 5445 ft | 360 kts | 21° |
| 2026-04-29 21:49 | 21.79412 | 39.16930 | 5956 ft | 381 kts | 42° |
| 2026-04-29 21:49 | 21.81153 | 39.18951 | 6093 ft | 360 kts | 47° |
| 2026-04-29 21:49 | 21.82728 | 39.20956 | 6167 ft | 339 kts | 47° |
| 2026-04-29 21:50 | 21.84230 | 39.22788 | 6414 ft | 314 kts | 45° |
| 2026-04-29 21:50 | 21.85679 | 39.24436 | 6650 ft | 293 kts | 43° |
| 2026-04-29 21:50 | 21.87115 | 39.25977 | 6895 ft | 291 kts | 42° |
| 2026-04-29 21:50 | 21.88576 | 39.27485 | 7188 ft | 291 kts | 41° |
| 2026-04-29 21:51 | 21.90062 | 39.28983 | 7473 ft | 294 kts | 41° |
| 2026-04-29 21:51 | 21.91543 | 39.30468 | 7754 ft | 296 kts | 41° |
| 2026-04-29 21:51 | 21.94597 | 39.33476 | 8371 ft | 299 kts | 40° |
| 2026-04-29 21:52 | 21.96147 | 39.34980 | 8672 ft | 301 kts | 40° |
| 2026-04-29 21:52 | 21.97711 | 39.36489 | 8939 ft | 302 kts | 40° |
| 2026-04-29 21:52 | 21.99281 | 39.38000 | 9254 ft | 303 kts | 40° |
| 2026-04-29 21:52 | 22.00859 | 39.39517 | 9556 ft | 304 kts | 40° |
| 2026-04-29 21:53 | 22.02444 | 39.41039 | 9883 ft | 306 kts | 40° |
| 2026-04-29 21:53 | 22.04051 | 39.42582 | 9961 ft | 312 kts | 40° |